createdAt,value
2023-01-23T00:03:34.374Z,20.88
2023-01-23T00:06:22.347Z,19.98
2023-01-23T00:09:10.110Z,19.02
2023-01-23T00:11:57.415Z,22.08
2023-01-23T00:14:44.525Z,21.38
2023-01-23T00:17:31.566Z,22.15
2023-01-23T00:20:19.182Z,20.75
2023-01-23T00:23:06.901Z,20.27
2023-01-23T00:25:53.967Z,20.42
2023-01-23T00:28:41.312Z,19.85
2023-01-23T00:31:32.810Z,22.42
2023-01-23T00:34:20.055Z,20.58
2023-01-23T00:37:07.148Z,21.20
2023-01-23T00:39:54.183Z,19.58
2023-01-23T00:42:41.204Z,21.17
2023-01-23T00:45:28.266Z,18.75
2023-01-23T00:48:15.592Z,20.75
2023-01-23T00:51:02.705Z,22.63
2023-01-23T00:53:49.851Z,20.38
2023-01-23T00:56:37.068Z,22.48
2023-01-23T00:59:24.160Z,20.67
2023-01-23T01:02:11.225Z,20.23
2023-01-23T01:04:58.252Z,21.02
2023-01-23T01:07:45.888Z,21.50
2023-01-23T01:10:34.178Z,21.95
2023-01-23T01:13:23.799Z,20.38
2023-01-23T01:16:11.386Z,20.58
2023-01-23T01:18:58.625Z,21.70
2023-01-23T01:21:45.785Z,21.02
2023-01-23T01:24:32.982Z,20.48
2023-01-23T01:27:20.079Z,21.85
2023-01-23T01:30:10.089Z,22.30
2023-01-23T01:32:57.410Z,21.48
2023-01-23T01:35:44.634Z,22.45
2023-01-23T01:38:31.692Z,23.33
2023-01-23T01:41:18.897Z,24.17
2023-01-23T01:44:06.404Z,22.98
2023-01-23T01:46:53.933Z,23.00
2023-01-23T01:49:41.065Z,23.40
2023-01-23T01:52:29.173Z,21.92
2023-01-23T01:55:16.399Z,20.90
2023-01-23T01:58:03.643Z,22.67
2023-01-23T02:00:50.766Z,22.77
2023-01-23T02:03:38.851Z,23.63
2023-01-23T02:06:26.591Z,24.63
2023-01-23T02:09:26.828Z,23.77
2023-01-23T02:15:05.731Z,22.10
2023-01-23T02:17:54.862Z,20.77
2023-01-23T02:20:42.141Z,23.45
2023-01-23T02:23:41.201Z,21.83
2023-01-23T02:26:33.042Z,23.25
2023-01-23T02:29:20.695Z,23.42
2023-01-23T02:32:08.031Z,23.05
2023-01-23T02:34:57.864Z,23.17
2023-01-23T02:37:49.029Z,22.02
2023-01-23T02:40:38.731Z,22.13
2023-01-23T02:43:34.818Z,22.98
2023-01-23T02:46:21.925Z,22.20
2023-01-23T02:49:09.697Z,22.50
2023-01-23T02:51:57.405Z,21.75
2023-01-23T02:54:44.461Z,21.42
2023-01-23T02:57:31.545Z,21.48
2023-01-23T03:00:22.879Z,21.15
2023-01-23T03:03:10.022Z,22.27
2023-01-23T03:05:59.321Z,24.45
2023-01-23T03:08:49.380Z,23.43
2023-01-23T03:11:38.931Z,22.17
2023-01-23T03:14:26.790Z,19.05
2023-01-23T03:17:14.999Z,22.48
2023-01-23T03:20:03.652Z,22.50
2023-01-23T03:22:50.972Z,20.10
2023-01-23T03:25:43.044Z,22.15
2023-01-23T03:28:49.030Z,22.02
2023-01-23T03:31:36.228Z,23.13
2023-01-23T03:34:23.956Z,21.75
2023-01-23T03:37:12.521Z,21.73
2023-01-23T03:40:18.766Z,21.38
2023-01-23T03:43:06.682Z,22.90
2023-01-23T03:45:53.832Z,23.27
2023-01-23T03:48:41.039Z,23.90
2023-01-23T03:51:28.085Z,23.30
2023-01-23T03:54:15.115Z,23.20
2023-01-23T03:57:02.164Z,22.15
2023-01-23T03:59:49.279Z,25.45
2023-01-23T04:02:36.367Z,25.05
2023-01-23T04:05:23.641Z,25.13
2023-01-23T04:08:10.775Z,23.77
2023-01-23T04:11:06.626Z,25.17
2023-01-23T04:13:55.140Z,25.92
2023-01-23T04:16:42.232Z,25.63
2023-01-23T04:19:29.399Z,25.48
2023-01-23T04:22:16.516Z,26.25
2023-01-23T04:25:03.846Z,27.17
2023-01-23T04:27:51.000Z,26.00
2023-01-23T04:30:38.163Z,24.85
2023-01-23T04:33:25.310Z,27.25
2023-01-23T04:36:12.802Z,25.00
2023-01-23T04:39:00.012Z,25.23
2023-01-23T04:41:47.141Z,26.77
2023-01-23T04:44:34.180Z,26.27
2023-01-23T04:47:21.242Z,24.30
2023-01-23T04:50:08.919Z,25.75
2023-01-23T04:52:56.821Z,23.10
2023-01-23T04:55:47.592Z,23.65
2023-01-23T04:58:34.737Z,22.60
2023-01-23T05:01:23.447Z,24.80
2023-01-23T05:04:10.923Z,23.48
2023-01-23T05:06:58.035Z,23.30
2023-01-23T05:09:45.253Z,22.15
2023-01-23T05:12:32.973Z,23.45
2023-01-23T05:15:21.375Z,21.73
2023-01-23T05:18:08.508Z,21.27
2023-01-23T05:20:55.643Z,24.95
2023-01-23T05:23:42.705Z,25.65
2023-01-23T05:26:29.710Z,23.38
2023-01-23T05:29:16.938Z,24.25
2023-01-23T05:32:04.205Z,25.08
2023-01-23T05:34:51.325Z,24.27
2023-01-23T05:37:38.695Z,23.10
2023-01-23T05:40:25.806Z,24.15
2023-01-23T05:43:15.541Z,23.63
2023-01-23T05:46:03.199Z,24.98
2023-01-23T05:48:52.039Z,23.63
2023-01-23T05:51:39.128Z,23.70
2023-01-23T05:54:26.216Z,23.67
2023-01-23T05:57:13.382Z,21.60
2023-01-23T06:00:00.493Z,24.90
2023-01-23T06:02:47.705Z,24.58
2023-01-23T06:05:34.797Z,23.25
2023-01-23T06:08:21.901Z,24.75
2023-01-23T06:11:08.986Z,24.63
2023-01-23T06:13:56.013Z,24.98
2023-01-23T06:16:43.073Z,25.15
2023-01-23T06:19:30.084Z,23.35
2023-01-23T06:22:17.296Z,23.08
2023-01-23T06:25:04.991Z,25.10
2023-01-23T06:27:54.742Z,25.13
2023-01-23T06:30:42.100Z,23.73
2023-01-23T06:33:29.110Z,24.48
2023-01-23T06:36:16.194Z,25.08
2023-01-23T06:39:03.340Z,24.35
2023-01-23T06:41:50.419Z,25.00
2023-01-23T06:44:37.970Z,25.23
2023-01-23T06:47:25.246Z,22.50
2023-01-23T06:50:12.386Z,23.88
2023-01-23T06:52:59.437Z,25.35
2023-01-23T06:55:46.679Z,25.40
2023-01-23T06:58:34.877Z,23.92
2023-01-23T07:01:22.382Z,23.92
2023-01-23T07:04:09.500Z,26.65
2023-01-23T07:06:56.670Z,25.05
2023-01-23T07:09:43.843Z,26.27
2023-01-23T07:12:30.943Z,26.05
2023-01-23T07:15:18.187Z,25.33
2023-01-23T07:18:05.509Z,25.10
2023-01-23T07:20:52.618Z,29.17
2023-01-23T07:23:39.717Z,30.73
2023-01-23T07:26:26.911Z,32.83
2023-01-23T07:29:14.455Z,27.70
2023-01-23T07:32:01.660Z,27.70
2023-01-23T07:34:48.719Z,28.65
2023-01-23T07:37:36.445Z,29.02
2023-01-23T07:40:24.124Z,27.45
2023-01-23T07:43:12.245Z,28.58
2023-01-23T07:46:02.896Z,25.13
2023-01-23T07:48:49.940Z,26.10
2023-01-23T07:51:37.020Z,24.55
2023-01-23T07:54:24.085Z,24.85
2023-01-23T07:57:11.231Z,24.35
2023-01-23T07:59:58.289Z,26.02
2023-01-23T08:02:45.410Z,25.85
2023-01-23T08:05:32.485Z,24.92
2023-01-23T08:08:19.553Z,27.92
2023-01-23T08:11:10.326Z,25.58
2023-01-23T08:13:57.402Z,26.33
2023-01-23T08:16:44.612Z,30.60
2023-01-23T08:19:31.738Z,29.67
2023-01-23T08:22:18.788Z,26.52
2023-01-23T08:25:07.482Z,24.52
2023-01-23T08:27:54.617Z,24.33
2023-01-23T08:30:41.769Z,24.35
2023-01-23T08:33:28.923Z,24.90
2023-01-23T08:36:16.086Z,23.00
2023-01-23T08:39:04.173Z,22.98
2023-01-23T08:41:51.594Z,25.98
2023-01-23T08:44:39.288Z,24.65
2023-01-23T08:47:26.431Z,25.13
2023-01-23T08:50:13.851Z,26.55
2023-01-23T08:53:01.173Z,25.83
2023-01-23T08:55:48.276Z,24.85
2023-01-23T08:58:35.396Z,28.05
2023-01-23T09:01:25.134Z,28.55
2023-01-23T09:04:12.255Z,28.88
2023-01-23T09:06:59.321Z,26.77
2023-01-23T09:09:46.685Z,28.35
2023-01-23T09:12:33.731Z,29.02
2023-01-23T09:15:22.588Z,27.88
2023-01-23T09:18:09.739Z,28.30
2023-01-23T09:20:57.068Z,28.33
2023-01-23T09:23:44.494Z,29.15
2023-01-23T09:26:31.722Z,27.55
2023-01-23T09:29:18.833Z,27.42
2023-01-23T09:32:06.153Z,27.35
2023-01-23T09:34:55.018Z,24.60
2023-01-23T09:38:00.472Z,26.88
2023-01-23T09:40:53.592Z,27.33
2023-01-23T09:44:05.434Z,27.15
2023-01-23T09:47:02.679Z,26.65
2023-01-23T09:49:58.699Z,27.38
2023-01-23T09:53:00.345Z,26.58
2023-01-23T09:55:53.824Z,26.65
2023-01-23T09:58:51.613Z,27.15
2023-01-23T10:01:39.110Z,25.55
2023-01-23T10:04:26.254Z,28.02
2023-01-23T10:07:27.711Z,26.27
2023-01-23T10:10:31.857Z,27.80
2023-01-23T10:13:19.293Z,25.48
2023-01-23T10:16:50.793Z,25.63
2023-01-23T10:20:34.728Z,24.48
2023-01-23T10:23:24.610Z,25.55
2023-01-23T10:26:18.678Z,24.23
2023-01-23T10:29:38.610Z,23.92
2023-01-23T10:32:29.296Z,23.33
2023-01-23T10:35:22.841Z,22.25
2023-01-23T10:38:41.186Z,23.33
2023-01-23T10:41:28.363Z,18.50
2023-01-23T10:44:18.324Z,15.70
2023-01-23T10:47:20.703Z,12.38
2023-01-23T10:50:08.672Z,15.95
2023-01-23T10:53:07.036Z,13.23
2023-01-23T10:55:59.014Z,13.63
2023-01-23T10:58:49.484Z,15.18
2023-01-23T11:01:38.771Z,15.57
2023-01-23T11:04:30.458Z,12.85
2023-01-23T11:07:20.452Z,15.68
2023-01-23T11:10:07.572Z,13.90
2023-01-23T11:12:55.662Z,10.30
2023-01-23T11:15:42.841Z,10.68
2023-01-23T11:18:38.790Z,10.65
2023-01-23T11:21:32.781Z,9.82
2023-01-23T11:24:39.303Z,11.07
2023-01-23T11:27:31.175Z,11.48
2023-01-23T11:30:47.583Z,11.25
2023-01-23T11:33:41.820Z,10.43
2023-01-23T11:36:59.752Z,9.75
2023-01-23T11:40:01.827Z,10.45
2023-01-23T11:42:49.109Z,9.98
2023-01-23T11:46:01.262Z,10.27
2023-01-23T11:49:03.256Z,9.05
2023-01-23T11:52:13.367Z,9.48
2023-01-23T11:55:03.438Z,8.90
2023-01-23T11:58:25.900Z,8.77
2023-01-23T12:01:35.245Z,8.60
2023-01-23T12:04:22.347Z,9.27
2023-01-23T12:07:21.562Z,13.55
2023-01-23T12:10:26.462Z,11.77
2023-01-23T12:13:38.885Z,16.27
2023-01-23T12:16:48.249Z,20.45
2023-01-23T12:19:46.736Z,11.60
2023-01-23T12:22:55.383Z,19.85
2023-01-23T12:25:50.266Z,18.15
2023-01-23T12:37:16.619Z,21.45
2023-01-23T12:40:25.250Z,18.90
